sensor_id;sensor_type;location;lat;lon;timestamp;pressure;altitude;pressure_sealevel;temperature;humidity
6349;BME280;3207;42.648;23.406;2023-03-22T02:10:11;99882.91;;;12.50;nan
6349;BME280;3207;42.648;23.406;2023-03-22T02:46:40;99841.09;;;11.84;nan
6349;BME280;3207;42.648;23.406;2023-03-22T03:13:58;99894.91;;;11.55;nan
6349;BME280;3207;42.648;23.406;2023-03-22T03:48:56;99913.13;;;11.12;nan
6349;BME280;3207;42.648;23.406;2023-03-22T05:32:27;99953.09;;;11.36;nan
6349;BME280;3207;42.648;23.406;2023-03-22T05:42:14;99924.50;;;12.00;nan
6349;BME280;3207;42.648;23.406;2023-03-22T06:58:10;100028.72;;;20.22;nan
6349;BME280;3207;42.648;23.406;2023-03-22T07:15:18;100044.09;;;24.21;nan
6349;BME280;3207;42.648;23.406;2023-03-22T07:17:48;100040.66;;;24.88;nan
6349;BME280;3207;42.648;23.406;2023-03-22T07:20:16;100045.19;;;25.00;nan
6349;BME280;3207;42.648;23.406;2023-03-22T07:22:43;100038.59;;;24.90;nan
6349;BME280;3207;42.648;23.406;2023-03-22T07:25:10;100034.91;;;24.30;nan
6349;BME280;3207;42.648;23.406;2023-03-22T07:27:37;100033.63;;;23.85;nan
6349;BME280;3207;42.648;23.406;2023-03-22T07:30:06;100039.03;;;23.57;nan
6349;BME280;3207;42.648;23.406;2023-03-22T07:32:33;100036.00;;;23.39;nan
6349;BME280;3207;42.648;23.406;2023-03-22T07:35:00;100035.00;;;22.97;nan
6349;BME280;3207;42.648;23.406;2023-03-22T07:37:27;100025.22;;;22.83;nan
6349;BME280;3207;42.648;23.406;2023-03-22T07:39:54;100029.41;;;22.92;nan
6349;BME280;3207;42.648;23.406;2023-03-22T07:42:20;100032.41;;;22.82;nan
6349;BME280;3207;42.648;23.406;2023-03-22T07:44:47;100042.81;;;23.20;nan
6349;BME280;3207;42.648;23.406;2023-03-22T07:47:16;100033.75;;;22.93;nan
6349;BME280;3207;42.648;23.406;2023-03-22T07:49:43;100037.91;;;23.23;nan
6349;BME280;3207;42.648;23.406;2023-03-22T07:52:10;100040.03;;;23.84;nan
6349;BME280;3207;42.648;23.406;2023-03-22T07:54:37;100048.44;;;24.83;nan
6349;BME280;3207;42.648;23.406;2023-03-22T07:57:03;100043.75;;;25.90;nan
6349;BME280;3207;42.648;23.406;2023-03-22T07:59:31;100033.91;;;26.73;nan
6349;BME280;3207;42.648;23.406;2023-03-22T08:01:58;100042.19;;;27.78;nan
6349;BME280;3207;42.648;23.406;2023-03-22T08:04:26;100052.41;;;28.79;nan
6349;BME280;3207;42.648;23.406;2023-03-22T08:06:53;100019.59;;;29.35;nan
6349;BME280;3207;42.648;23.406;2023-03-22T08:09:23;100051.41;;;30.31;nan
6349;BME280;3207;42.648;23.406;2023-03-22T08:11:49;100030.84;;;31.15;nan
6349;BME280;3207;42.648;23.406;2023-03-22T08:14:16;100056.88;;;31.38;nan
6349;BME280;3207;42.648;23.406;2023-03-22T08:16:43;100056.59;;;31.90;nan
6349;BME280;3207;42.648;23.406;2023-03-22T08:19:18;100042.84;;;31.58;nan
6349;BME280;3207;42.648;23.406;2023-03-22T08:21:46;100067.53;;;32.39;nan
6349;BME280;3207;42.648;23.406;2023-03-22T08:24:13;100062.53;;;32.52;nan
6349;BME280;3207;42.648;23.406;2023-03-22T08:26:40;100065.88;;;33.13;nan
6349;BME280;3207;42.648;23.406;2023-03-22T08:29:10;100061.56;;;33.86;nan
6349;BME280;3207;42.648;23.406;2023-03-22T08:31:37;100067.94;;;34.95;nan
6349;BME280;3207;42.648;23.406;2023-03-22T08:34:04;100053.72;;;35.94;nan
6349;BME280;3207;42.648;23.406;2023-03-22T08:36:31;100070.47;;;36.86;nan
6349;BME280;3207;42.648;23.406;2023-03-22T08:38:59;100075.97;;;37.15;nan
6349;BME280;3207;42.648;23.406;2023-03-22T08:41:27;100069.16;;;37.12;nan
6349;BME280;3207;42.648;23.406;2023-03-22T08:43:54;100063.13;;;36.32;nan
6349;BME280;3207;42.648;23.406;2023-03-22T08:46:21;100062.50;;;35.50;nan
6349;BME280;3207;42.648;23.406;2023-03-22T08:48:48;100053.94;;;34.45;nan
6349;BME280;3207;42.648;23.406;2023-03-22T08:51:16;100072.84;;;34.20;nan
6349;BME280;3207;42.648;23.406;2023-03-22T08:53:43;100063.22;;;34.65;nan
6349;BME280;3207;42.648;23.406;2023-03-22T08:56:11;100063.34;;;35.46;nan
6349;BME280;3207;42.648;23.406;2023-03-22T08:58:39;100070.22;;;36.77;nan
6349;BME280;3207;42.648;23.406;2023-03-22T09:01:09;100068.44;;;37.64;nan
6349;BME280;3207;42.648;23.406;2023-03-22T09:03:36;100066.91;;;38.49;nan
6349;BME280;3207;42.648;23.406;2023-03-22T09:06:03;100067.06;;;39.46;nan
6349;BME280;3207;42.648;23.406;2023-03-22T09:08:31;100070.78;;;39.96;nan
6349;BME280;3207;42.648;23.406;2023-03-22T09:10:57;100069.81;;;40.55;nan
6349;BME280;3207;42.648;23.406;2023-03-22T09:13:26;100067.25;;;41.40;nan
6349;BME280;3207;42.648;23.406;2023-03-22T09:15:59;100070.00;;;42.19;nan
6349;BME280;3207;42.648;23.406;2023-03-22T09:18:26;100072.88;;;42.88;nan
6349;BME280;3207;42.648;23.406;2023-03-22T09:20:53;100073.41;;;43.62;nan
6349;BME280;3207;42.648;23.406;2023-03-22T09:23:20;100067.41;;;44.19;nan
6349;BME280;3207;42.648;23.406;2023-03-22T09:25:47;100072.22;;;44.31;nan
6349;BME280;3207;42.648;23.406;2023-03-22T09:28:15;100060.63;;;44.46;nan
6349;BME280;3207;42.648;23.406;2023-03-22T09:30:43;100060.81;;;44.62;nan
6349;BME280;3207;42.648;23.406;2023-03-22T09:33:10;100057.22;;;45.03;nan
6349;BME280;3207;42.648;23.406;2023-03-22T09:35:39;100044.38;;;44.86;nan
6349;BME280;3207;42.648;23.406;2023-03-22T09:38:07;100057.81;;;45.08;nan
6349;BME280;3207;42.648;23.406;2023-03-22T09:40:36;100056.81;;;44.71;nan
6349;BME280;3207;42.648;23.406;2023-03-22T09:43:06;100052.47;;;44.70;nan
6349;BME280;3207;42.648;23.406;2023-03-22T09:45:38;100061.50;;;45.45;nan
6349;BME280;3207;42.648;23.406;2023-03-22T09:48:17;100061.94;;;45.47;nan
6349;BME280;3207;42.648;23.406;2023-03-22T09:50:47;100067.16;;;45.73;nan
6349;BME280;3207;42.648;23.406;2023-03-22T09:53:15;100052.84;;;46.32;nan
6349;BME280;3207;42.648;23.406;2023-03-22T09:55:45;100054.41;;;46.05;nan
6349;BME280;3207;42.648;23.406;2023-03-22T09:58:20;100058.09;;;45.97;nan
6349;BME280;3207;42.648;23.406;2023-03-22T10:00:55;100065.44;;;46.30;nan
6349;BME280;3207;42.648;23.406;2023-03-22T10:03:39;100047.19;;;46.81;nan
6349;BME280;3207;42.648;23.406;2023-03-22T10:06:12;100049.72;;;47.61;nan
6349;BME280;3207;42.648;23.406;2023-03-22T10:08:49;100042.09;;;47.26;nan
6349;BME280;3207;42.648;23.406;2023-03-22T10:11:24;100046.84;;;46.82;nan
6349;BME280;3207;42.648;23.406;2023-03-22T10:13:59;100046.66;;;43.63;nan
6349;BME280;3207;42.648;23.406;2023-03-22T10:16:30;100044.34;;;43.73;nan
6349;BME280;3207;42.648;23.406;2023-03-22T10:19:04;100041.53;;;43.82;nan
6349;BME280;3207;42.648;23.406;2023-03-22T10:21:32;100037.06;;;43.98;nan
6349;BME280;3207;42.648;23.406;2023-03-22T10:24:05;100038.97;;;43.30;nan
6349;BME280;3207;42.648;23.406;2023-03-22T10:26:36;100039.84;;;43.52;nan
6349;BME280;3207;42.648;23.406;2023-03-22T10:29:10;100029.66;;;42.45;nan
6349;BME280;3207;42.648;23.406;2023-03-22T10:31:38;100026.19;;;41.35;nan
6349;BME280;3207;42.648;23.406;2023-03-22T10:34:17;100019.56;;;38.34;nan
6349;BME280;3207;42.648;23.406;2023-03-22T10:36:45;100018.16;;;39.26;nan
6349;BME280;3207;42.648;23.406;2023-03-22T10:39:24;100013.34;;;39.50;nan
6349;BME280;3207;42.648;23.406;2023-03-22T10:41:53;100026.50;;;40.66;nan
6349;BME280;3207;42.648;23.406;2023-03-22T10:44:21;100013.09;;;40.42;nan
6349;BME280;3207;42.648;23.406;2023-03-22T10:46:50;100007.47;;;39.98;nan
6349;BME280;3207;42.648;23.406;2023-03-22T10:49:23;100004.63;;;39.62;nan
6349;BME280;3207;42.648;23.406;2023-03-22T10:51:55;100009.28;;;40.88;nan
6349;BME280;3207;42.648;23.406;2023-03-22T10:54:24;100013.09;;;42.11;nan
6349;BME280;3207;42.648;23.406;2023-03-22T10:56:51;100008.03;;;43.16;nan
6349;BME280;3207;42.648;23.406;2023-03-22T10:59:45;99984.84;;;43.34;nan
6349;BME280;3207;42.648;23.406;2023-03-22T11:02:17;99996.00;;;43.76;nan
6349;BME280;3207;42.648;23.406;2023-03-22T11:04:48;99999.31;;;44.40;nan
6349;BME280;3207;42.648;23.406;2023-03-22T11:07:26;99996.34;;;44.25;nan
6349;BME280;3207;42.648;23.406;2023-03-22T11:12:43;99993.66;;;45.48;nan
6349;BME280;3207;42.648;23.406;2023-03-22T11:15:22;99991.47;;;45.29;nan
6349;BME280;3207;42.648;23.406;2023-03-22T11:17:52;99993.69;;;45.97;nan
6349;BME280;3207;42.648;23.406;2023-03-22T11:20:21;99981.84;;;43.86;nan
6349;BME280;3207;42.648;23.406;2023-03-22T11:22:49;99962.72;;;45.30;nan
6349;BME280;3207;42.648;23.406;2023-03-22T11:25:19;99977.69;;;46.86;nan
6349;BME280;3207;42.648;23.406;2023-03-22T11:27:52;99973.66;;;47.93;nan
6349;BME280;3207;42.648;23.406;2023-03-22T11:30:22;99967.56;;;48.81;nan
6349;BME280;3207;42.648;23.406;2023-03-22T11:32:58;99971.22;;;48.27;nan
6349;BME280;3207;42.648;23.406;2023-03-22T11:35:30;99925.00;;;45.99;nan
6349;BME280;3207;42.648;23.406;2023-03-22T11:37:57;99958.88;;;46.08;nan
6349;BME280;3207;42.648;23.406;2023-03-22T11:40:28;99963.91;;;46.30;nan
6349;BME280;3207;42.648;23.406;2023-03-22T11:43:02;99961.03;;;44.72;nan
6349;BME280;3207;42.648;23.406;2023-03-22T11:45:40;99955.56;;;45.17;nan
6349;BME280;3207;42.648;23.406;2023-03-22T11:48:11;99944.84;;;44.17;nan
6349;BME280;3207;42.648;23.406;2023-03-22T11:50:43;99942.91;;;42.22;nan
6349;BME280;3207;42.648;23.406;2023-03-22T11:53:14;99937.09;;;42.66;nan
6349;BME280;3207;42.648;23.406;2023-03-22T11:55:42;99931.59;;;42.49;nan
6349;BME280;3207;42.648;23.406;2023-03-22T11:58:22;99922.56;;;41.49;nan
6349;BME280;3207;42.648;23.406;2023-03-22T12:00:51;99917.81;;;40.48;nan
6349;BME280;3207;42.648;23.406;2023-03-22T12:03:21;99918.00;;;38.97;nan
6349;BME280;3207;42.648;23.406;2023-03-22T12:05:51;99914.59;;;37.08;nan
6349;BME280;3207;42.648;23.406;2023-03-22T12:08:24;99914.00;;;35.39;nan
6349;BME280;3207;42.648;23.406;2023-03-22T12:10:56;99896.31;;;33.85;nan
6349;BME280;3207;42.648;23.406;2023-03-22T12:13:34;99892.59;;;32.64;nan
6349;BME280;3207;42.648;23.406;2023-03-22T12:16:05;99884.66;;;31.72;nan
6349;BME280;3207;42.648;23.406;2023-03-22T12:18:37;99882.03;;;31.39;nan
6349;BME280;3207;42.648;23.406;2023-03-22T12:21:09;99877.66;;;30.77;nan
6349;BME280;3207;42.648;23.406;2023-03-22T12:23:36;99879.63;;;29.92;nan
6349;BME280;3207;42.648;23.406;2023-03-22T12:26:05;99876.66;;;29.01;nan
6349;BME280;3207;42.648;23.406;2023-03-22T12:28:36;99863.59;;;28.52;nan
6349;BME280;3207;42.648;23.406;2023-03-22T12:31:09;99861.09;;;28.27;nan
6349;BME280;3207;42.648;23.406;2023-03-22T12:33:42;99859.59;;;28.42;nan
6349;BME280;3207;42.648;23.406;2023-03-22T12:36:15;99854.94;;;28.61;nan
6349;BME280;3207;42.648;23.406;2023-03-22T12:38:46;99854.91;;;27.96;nan
6349;BME280;3207;42.648;23.406;2023-03-22T12:41:18;99858.72;;;27.89;nan
6349;BME280;3207;42.648;23.406;2023-03-22T12:43:49;99848.22;;;27.99;nan
6349;BME280;3207;42.648;23.406;2023-03-22T12:46:20;99850.47;;;28.02;nan
6349;BME280;3207;42.648;23.406;2023-03-22T12:48:49;99841.66;;;27.83;nan
6349;BME280;3207;42.648;23.406;2023-03-22T12:51:18;99835.84;;;27.68;nan
6349;BME280;3207;42.648;23.406;2023-03-22T12:53:48;99833.38;;;27.66;nan
6349;BME280;3207;42.648;23.406;2023-03-22T12:56:19;99828.75;;;27.74;nan
6349;BME280;3207;42.648;23.406;2023-03-22T12:58:48;99823.94;;;27.94;nan
6349;BME280;3207;42.648;23.406;2023-03-22T13:01:22;99823.75;;;28.07;nan
6349;BME280;3207;42.648;23.406;2023-03-22T13:03:53;99813.31;;;28.11;nan
6349;BME280;3207;42.648;23.406;2023-03-22T13:06:32;99815.84;;;27.94;nan
6349;BME280;3207;42.648;23.406;2023-03-22T13:09:14;99807.84;;;28.05;nan
6349;BME280;3207;42.648;23.406;2023-03-22T13:11:42;99804.84;;;27.84;nan
6349;BME280;3207;42.648;23.406;2023-03-22T13:14:12;99800.34;;;27.48;nan
6349;BME280;3207;42.648;23.406;2023-03-22T13:16:55;99795.66;;;27.43;nan
6349;BME280;3207;42.648;23.406;2023-03-22T13:19:50;99797.28;;;27.44;nan
6349;BME280;3207;42.648;23.406;2023-03-22T13:22:26;99788.00;;;27.28;nan
6349;BME280;3207;42.648;23.406;2023-03-22T13:25:05;99778.06;;;26.92;nan
6349;BME280;3207;42.648;23.406;2023-03-22T13:27:39;99775.53;;;26.79;nan
6349;BME280;3207;42.648;23.406;2023-03-22T13:30:14;99770.28;;;26.48;nan
6349;BME280;3207;42.648;23.406;2023-03-22T13:32:46;99771.03;;;26.55;nan
6349;BME280;3207;42.648;23.406;2023-03-22T13:35:20;99771.03;;;26.55;nan
6349;BME280;3207;42.648;23.406;2023-03-22T13:37:50;99763.66;;;26.69;nan
6349;BME280;3207;42.648;23.406;2023-03-22T13:40:28;99753.16;;;26.67;nan
6349;BME280;3207;42.648;23.406;2023-03-22T13:43:10;99756.81;;;26.73;nan
6349;BME280;3207;42.648;23.406;2023-03-22T13:46:08;99755.72;;;26.80;nan
6349;BME280;3207;42.648;23.406;2023-03-22T13:48:43;99766.28;;;26.75;nan
6349;BME280;3207;42.648;23.406;2023-03-22T13:51:18;99751.81;;;26.76;nan
6349;BME280;3207;42.648;23.406;2023-03-22T13:53:55;99759.25;;;26.56;nan
6349;BME280;3207;42.648;23.406;2023-03-22T13:56:32;99758.00;;;26.58;nan
6349;BME280;3207;42.648;23.406;2023-03-22T13:59:00;99754.41;;;26.65;nan
6349;BME280;3207;42.648;23.406;2023-03-22T14:01:31;99756.88;;;26.66;nan
6349;BME280;3207;42.648;23.406;2023-03-22T14:04:03;99746.47;;;26.76;nan
6349;BME280;3207;42.648;23.406;2023-03-22T14:06:34;99734.22;;;26.62;nan
6349;BME280;3207;42.648;23.406;2023-03-22T14:09:11;99738.63;;;26.56;nan
6349;BME280;3207;42.648;23.406;2023-03-22T14:11:44;99732.28;;;26.51;nan
6349;BME280;3207;42.648;23.406;2023-03-22T14:14:14;99739.06;;;26.72;nan
6349;BME280;3207;42.648;23.406;2023-03-22T14:16:46;99734.47;;;26.79;nan
6349;BME280;3207;42.648;23.406;2023-03-22T14:19:17;99726.34;;;26.67;nan
6349;BME280;3207;42.648;23.406;2023-03-22T14:21:48;99729.53;;;26.57;nan
6349;BME280;3207;42.648;23.406;2023-03-22T14:24:19;99731.44;;;26.32;nan
6349;BME280;3207;42.648;23.406;2023-03-22T14:26:50;99722.00;;;25.98;nan
6349;BME280;3207;42.648;23.406;2023-03-22T14:29:19;99722.22;;;25.97;nan
6349;BME280;3207;42.648;23.406;2023-03-22T14:31:54;99718.28;;;25.99;nan
6349;BME280;3207;42.648;23.406;2023-03-22T14:34:23;99718.19;;;26.12;nan
6349;BME280;3207;42.648;23.406;2023-03-22T14:36:55;99720.19;;;26.17;nan
6349;BME280;3207;42.648;23.406;2023-03-22T14:39:29;99713.41;;;26.39;nan
6349;BME280;3207;42.648;23.406;2023-03-22T14:42:00;99709.69;;;26.40;nan
6349;BME280;3207;42.648;23.406;2023-03-22T14:44:29;99707.09;;;26.34;nan
6349;BME280;3207;42.648;23.406;2023-03-22T14:47:09;99698.25;;;26.27;nan
6349;BME280;3207;42.648;23.406;2023-03-22T14:49:42;99706.84;;;26.10;nan
6349;BME280;3207;42.648;23.406;2023-03-22T14:52:14;99703.38;;;25.85;nan
6349;BME280;3207;42.648;23.406;2023-03-22T14:54:43;99694.50;;;25.53;nan
6349;BME280;3207;42.648;23.406;2023-03-22T14:57:13;99699.84;;;25.53;nan
6349;BME280;3207;42.648;23.406;2023-03-22T14:59:42;99696.19;;;25.47;nan
6349;BME280;3207;42.648;23.406;2023-03-22T15:02:22;99695.22;;;25.35;nan
6349;BME280;3207;42.648;23.406;2023-03-22T15:04:51;99692.97;;;25.32;nan
6349;BME280;3207;42.648;23.406;2023-03-22T15:07:19;99678.66;;;25.20;nan
6349;BME280;3207;42.648;23.406;2023-03-22T15:09:47;99689.94;;;25.22;nan
6349;BME280;3207;42.648;23.406;2023-03-22T15:12:15;99696.97;;;25.16;nan
6349;BME280;3207;42.648;23.406;2023-03-22T15:14:46;99696.25;;;24.96;nan
6349;BME280;3207;42.648;23.406;2023-03-22T15:17:15;99687.16;;;24.91;nan
6349;BME280;3207;42.648;23.406;2023-03-22T15:19:46;99694.16;;;24.92;nan
6349;BME280;3207;42.648;23.406;2023-03-22T15:22:16;99690.28;;;24.88;nan
6349;BME280;3207;42.648;23.406;2023-03-22T15:24:53;99687.25;;;24.71;nan
6349;BME280;3207;42.648;23.406;2023-03-22T15:27:20;99675.34;;;24.60;nan
6349;BME280;3207;42.648;23.406;2023-03-22T15:29:48;99690.19;;;24.56;nan
6349;BME280;3207;42.648;23.406;2023-03-22T15:32:17;99681.13;;;24.57;nan
6349;BME280;3207;42.648;23.406;2023-03-22T15:34:45;99688.38;;;24.43;nan
6349;BME280;3207;42.648;23.406;2023-03-22T15:37:14;99677.50;;;23.92;nan
6349;BME280;3207;42.648;23.406;2023-03-22T15:39:47;99682.44;;;23.82;nan
6349;BME280;3207;42.648;23.406;2023-03-22T15:42:18;99675.03;;;23.91;nan
6349;BME280;3207;42.648;23.406;2023-03-22T15:44:52;99684.25;;;23.95;nan
6349;BME280;3207;42.648;23.406;2023-03-22T15:47:20;99673.41;;;23.90;nan
6349;BME280;3207;42.648;23.406;2023-03-22T15:49:49;99677.50;;;23.73;nan
6349;BME280;3207;42.648;23.406;2023-03-22T15:52:18;99677.28;;;23.74;nan
6349;BME280;3207;42.648;23.406;2023-03-22T15:54:55;99677.91;;;23.76;nan
6349;BME280;3207;42.648;23.406;2023-03-22T15:57:36;99675.03;;;23.51;nan
6349;BME280;3207;42.648;23.406;2023-03-22T16:00:07;99673.59;;;23.68;nan
6349;BME280;3207;42.648;23.406;2023-03-22T16:02:48;99675.44;;;23.75;nan
6349;BME280;3207;42.648;23.406;2023-03-22T16:05:16;99680.34;;;23.58;nan
6349;BME280;3207;42.648;23.406;2023-03-22T16:07:44;99676.81;;;23.38;nan
6349;BME280;3207;42.648;23.406;2023-03-22T16:10:14;99684.00;;;23.37;nan
6349;BME280;3207;42.648;23.406;2023-03-22T16:12:43;99676.91;;;23.10;nan
6349;BME280;3207;42.648;23.406;2023-03-22T16:15:13;99671.56;;;23.03;nan
6349;BME280;3207;42.648;23.406;2023-03-22T16:17:40;99667.06;;;22.97;nan
6349;BME280;3207;42.648;23.406;2023-03-22T16:20:08;99683.44;;;22.94;nan
6349;BME280;3207;42.648;23.406;2023-03-22T16:22:36;99679.13;;;22.58;nan
6349;BME280;3207;42.648;23.406;2023-03-22T16:25:04;99685.41;;;22.79;nan
6349;BME280;3207;42.648;23.406;2023-03-22T16:27:31;99680.91;;;22.79;nan
6349;BME280;3207;42.648;23.406;2023-03-22T16:29:59;99682.50;;;22.74;nan
6349;BME280;3207;42.648;23.406;2023-03-22T16:32:27;99688.66;;;22.74;nan
6349;BME280;3207;42.648;23.406;2023-03-22T16:34:54;99696.00;;;22.66;nan
6349;BME280;3207;42.648;23.406;2023-03-22T16:37:23;99692.00;;;22.48;nan
6349;BME280;3207;42.648;23.406;2023-03-22T16:39:50;99686.63;;;22.42;nan
6349;BME280;3207;42.648;23.406;2023-03-22T16:42:18;99678.44;;;22.09;nan
6349;BME280;3207;42.648;23.406;2023-03-22T16:44:47;99694.78;;;22.06;nan
6349;BME280;3207;42.648;23.406;2023-03-22T16:47:17;99693.25;;;21.97;nan
6349;BME280;3207;42.648;23.406;2023-03-22T16:49:44;99695.41;;;21.86;nan
6349;BME280;3207;42.648;23.406;2023-03-22T16:52:13;99690.91;;;21.87;nan
6349;BME280;3207;42.648;23.406;2023-03-22T16:54:43;99691.88;;;21.79;nan
6349;BME280;3207;42.648;23.406;2023-03-22T16:57:14;99685.06;;;21.70;nan
6349;BME280;3207;42.648;23.406;2023-03-22T16:59:41;99691.94;;;21.65;nan
6349;BME280;3207;42.648;23.406;2023-03-22T17:02:17;99692.06;;;21.57;nan
6349;BME280;3207;42.648;23.406;2023-03-22T17:04:44;99692.56;;;21.45;nan
6349;BME280;3207;42.648;23.406;2023-03-22T17:07:13;99694.53;;;21.37;nan
6349;BME280;3207;42.648;23.406;2023-03-22T17:09:40;99694.03;;;21.27;nan
6349;BME280;3207;42.648;23.406;2023-03-22T17:12:15;99699.72;;;21.24;nan
6349;BME280;3207;42.648;23.406;2023-03-22T17:14:42;99692.09;;;21.21;nan
6349;BME280;3207;42.648;23.406;2023-03-22T17:17:09;99699.97;;;21.14;nan
6349;BME280;3207;42.648;23.406;2023-03-22T17:19:37;99698.31;;;21.13;nan
6349;BME280;3207;42.648;23.406;2023-03-22T17:22:05;99697.25;;;21.07;nan
6349;BME280;3207;42.648;23.406;2023-03-22T17:24:33;99692.03;;;20.99;nan
6349;BME280;3207;42.648;23.406;2023-03-22T17:27:00;99701.94;;;21.05;nan
6349;BME280;3207;42.648;23.406;2023-03-22T17:29:27;99705.41;;;21.06;nan
6349;BME280;3207;42.648;23.406;2023-03-22T17:31:54;99703.59;;;21.06;nan
6349;BME280;3207;42.648;23.406;2023-03-22T17:34:20;99703.19;;;21.09;nan
6349;BME280;3207;42.648;23.406;2023-03-22T17:36:49;99703.41;;;21.08;nan
6349;BME280;3207;42.648;23.406;2023-03-22T17:39:15;99708.72;;;21.08;nan
6349;BME280;3207;42.648;23.406;2023-03-22T17:41:42;99708.44;;;21.03;nan
6349;BME280;3207;42.648;23.406;2023-03-22T17:44:09;99714.69;;;20.95;nan
6349;BME280;3207;42.648;23.406;2023-03-22T17:46:36;99719.81;;;20.97;nan
6349;BME280;3207;42.648;23.406;2023-03-22T17:49:03;99727.59;;;20.98;nan
6349;BME280;3207;42.648;23.406;2023-03-22T17:51:30;99722.25;;;20.98;nan
6349;BME280;3207;42.648;23.406;2023-03-22T17:53:59;99719.91;;;20.89;nan
6349;BME280;3207;42.648;23.406;2023-03-22T17:56:25;99721.38;;;20.91;nan
6349;BME280;3207;42.648;23.406;2023-03-22T17:58:52;99729.34;;;20.91;nan
6349;BME280;3207;42.648;23.406;2023-03-22T18:01:20;99725.03;;;20.90;nan
6349;BME280;3207;42.648;23.406;2023-03-22T18:03:48;99730.72;;;20.87;nan
6349;BME280;3207;42.648;23.406;2023-03-22T18:06:15;99736.41;;;20.84;nan
6349;BME280;3207;42.648;23.406;2023-03-22T18:08:48;99732.56;;;20.72;nan
6349;BME280;3207;42.648;23.406;2023-03-22T18:11:24;99735.22;;;20.72;nan
6349;BME280;3207;42.648;23.406;2023-03-22T18:13:50;99738.97;;;20.77;nan
6349;BME280;3207;42.648;23.406;2023-03-22T18:16:18;99741.44;;;20.79;nan
6349;BME280;3207;42.648;23.406;2023-03-22T18:18:45;99741.34;;;20.72;nan
6349;BME280;3207;42.648;23.406;2023-03-22T18:21:12;99741.91;;;20.68;nan
6349;BME280;3207;42.648;23.406;2023-03-22T18:23:40;99740.63;;;20.64;nan
6349;BME280;3207;42.648;23.406;2023-03-22T18:26:08;99748.31;;;20.59;nan
6349;BME280;3207;42.648;23.406;2023-03-22T18:28:39;99738.03;;;20.56;nan
6349;BME280;3207;42.648;23.406;2023-03-22T18:31:07;99739.06;;;20.55;nan
6349;BME280;3207;42.648;23.406;2023-03-22T18:33:34;99743.44;;;20.48;nan
6349;BME280;3207;42.648;23.406;2023-03-22T18:36:02;99742.75;;;20.31;nan
6349;BME280;3207;42.648;23.406;2023-03-22T18:38:29;99745.94;;;20.26;nan
6349;BME280;3207;42.648;23.406;2023-03-22T18:40:58;99750.25;;;20.27;nan
6349;BME280;3207;42.648;23.406;2023-03-22T18:43:25;99748.59;;;20.26;nan
6349;BME280;3207;42.648;23.406;2023-03-22T18:45:54;99744.38;;;20.17;nan
6349;BME280;3207;42.648;23.406;2023-03-22T18:48:21;99751.94;;;20.05;nan
6349;BME280;3207;42.648;23.406;2023-03-22T18:50:47;99749.19;;;19.99;nan
6349;BME280;3207;42.648;23.406;2023-03-22T18:53:14;99752.53;;;19.93;nan
6349;BME280;3207;42.648;23.406;2023-03-22T18:55:41;99749.25;;;19.91;nan
6349;BME280;3207;42.648;23.406;2023-03-22T18:58:08;99746.63;;;19.83;nan
6349;BME280;3207;42.648;23.406;2023-03-22T19:00:35;99761.22;;;19.87;nan
6349;BME280;3207;42.648;23.406;2023-03-22T19:03:03;99759.97;;;19.74;nan
6349;BME280;3207;42.648;23.406;2023-03-22T19:05:30;99758.84;;;19.69;nan
6349;BME280;3207;42.648;23.406;2023-03-22T19:07:57;99755.72;;;19.65;nan
6349;BME280;3207;42.648;23.406;2023-03-22T19:10:23;99755.13;;;19.55;nan
6349;BME280;3207;42.648;23.406;2023-03-22T19:12:50;99635.28;;;18.75;nan
6349;BME280;3207;42.648;23.406;2023-03-22T19:15:17;99760.13;;;19.50;nan
6349;BME280;3207;42.648;23.406;2023-03-22T19:17:44;99760.47;;;19.47;nan
6349;BME280;3207;42.648;23.406;2023-03-22T19:20:12;99757.88;;;19.31;nan
6349;BME280;3207;42.648;23.406;2023-03-22T19:22:41;99755.41;;;19.29;nan
6349;BME280;3207;42.648;23.406;2023-03-22T19:25:10;99757.53;;;19.34;nan
6349;BME280;3207;42.648;23.406;2023-03-22T19:27:37;99753.13;;;19.18;nan
6349;BME280;3207;42.648;23.406;2023-03-22T19:30:05;99763.41;;;19.21;nan
6349;BME280;3207;42.648;23.406;2023-03-22T19:32:32;99758.63;;;19.09;nan
6349;BME280;3207;42.648;23.406;2023-03-22T19:35:00;99768.13;;;19.03;nan
6349;BME280;3207;42.648;23.406;2023-03-22T19:37:28;99766.22;;;18.81;nan
6349;BME280;3207;42.648;23.406;2023-03-22T19:39:55;99745.72;;;18.67;nan
6349;BME280;3207;42.648;23.406;2023-03-22T19:42:25;99766.22;;;18.81;nan
6349;BME280;3207;42.648;23.406;2023-03-22T19:44:52;99776.31;;;18.77;nan
6349;BME280;3207;42.648;23.406;2023-03-22T19:47:19;99746.41;;;18.60;nan
6349;BME280;3207;42.648;23.406;2023-03-22T19:49:45;99775.47;;;18.77;nan
6349;BME280;3207;42.648;23.406;2023-03-22T19:52:12;99764.91;;;18.69;nan
6349;BME280;3207;42.648;23.406;2023-03-22T19:54:41;99768.03;;;18.80;nan
6349;BME280;3207;42.648;23.406;2023-03-22T19:57:08;99768.53;;;18.76;nan
6349;BME280;3207;42.648;23.406;2023-03-22T19:59:35;99761.41;;;18.84;nan
6349;BME280;3207;42.648;23.406;2023-03-22T20:02:01;99759.44;;;18.70;nan
6349;BME280;3207;42.648;23.406;2023-03-22T20:04:29;99776.34;;;18.69;nan
6349;BME280;3207;42.648;23.406;2023-03-22T20:06:57;99753.19;;;18.63;nan
6349;BME280;3207;42.648;23.406;2023-03-22T20:09:24;99779.81;;;18.70;nan
6349;BME280;3207;42.648;23.406;2023-03-22T20:11:52;99769.41;;;18.60;nan
6349;BME280;3207;42.648;23.406;2023-03-22T20:14:19;99778.69;;;18.64;nan
6349;BME280;3207;42.648;23.406;2023-03-22T20:16:46;99781.31;;;18.64;nan
6349;BME280;3207;42.648;23.406;2023-03-22T20:19:13;99758.81;;;18.60;nan
6349;BME280;3207;42.648;23.406;2023-03-22T20:21:40;99740.47;;;18.42;nan
6349;BME280;3207;42.648;23.406;2023-03-22T20:24:07;99779.81;;;18.70;nan
6349;BME280;3207;42.648;23.406;2023-03-22T20:26:34;99769.06;;;18.47;nan
6349;BME280;3207;42.648;23.406;2023-03-22T20:29:03;99785.59;;;18.57;nan
6349;BME280;3207;42.648;23.406;2023-03-22T20:31:30;99769.41;;;18.60;nan
6349;BME280;3207;42.648;23.406;2023-03-22T20:33:57;99782.94;;;18.73;nan
6349;BME280;3207;42.648;23.406;2023-03-22T20:36:24;99785.59;;;18.57;nan
6349;BME280;3207;42.648;23.406;2023-03-22T20:38:51;99766.09;;;18.34;nan
6349;BME280;3207;42.648;23.406;2023-03-22T20:41:18;99783.47;;;18.36;nan
6349;BME280;3207;42.648;23.406;2023-03-22T20:43:46;99791.25;;;18.38;nan